sensor_id;sensor_type;location;lat;lon;timestamp;P1;durP1;ratioP1;P2;durP2;ratioP2
16880;SDS011;8557;52.068;5.198;2023-01-29T00:01:17;21.40;;;15.95;;
16880;SDS011;8557;52.068;5.198;2023-01-29T00:03:45;20.83;;;17.80;;
16880;SDS011;8557;52.068;5.198;2023-01-29T00:06:15;22.50;;;15.23;;
16880;SDS011;8557;52.068;5.198;2023-01-29T00:08:41;21.92;;;15.85;;
16880;SDS011;8557;52.068;5.198;2023-01-29T00:11:08;21.27;;;15.80;;
16880;SDS011;8557;52.068;5.198;2023-01-29T00:13:35;21.63;;;15.93;;
16880;SDS011;8557;52.068;5.198;2023-01-29T00:16:02;22.02;;;15.93;;
16880;SDS011;8557;52.068;5.198;2023-01-29T00:18:29;22.60;;;15.73;;
16880;SDS011;8557;52.068;5.198;2023-01-29T00:20:58;23.48;;;15.55;;
16880;SDS011;8557;52.068;5.198;2023-01-29T00:23:25;20.45;;;15.93;;
16880;SDS011;8557;52.068;5.198;2023-01-29T00:25:52;24.52;;;17.63;;
16880;SDS011;8557;52.068;5.198;2023-01-29T00:28:18;25.77;;;17.15;;
16880;SDS011;8557;52.068;5.198;2023-01-29T00:30:45;22.17;;;16.05;;
16880;SDS011;8557;52.068;5.198;2023-01-29T00:33:12;22.98;;;16.73;;
16880;SDS011;8557;52.068;5.198;2023-01-29T00:35:39;20.95;;;15.20;;
16880;SDS011;8557;52.068;5.198;2023-01-29T00:38:08;21.27;;;14.95;;
16880;SDS011;8557;52.068;5.198;2023-01-29T00:40:38;21.58;;;14.68;;
16880;SDS011;8557;52.068;5.198;2023-01-29T00:43:23;20.60;;;14.98;;
16880;SDS011;8557;52.068;5.198;2023-01-29T00:46:08;21.50;;;15.25;;
16880;SDS011;8557;52.068;5.198;2023-01-29T00:48:35;21.00;;;14.63;;
16880;SDS011;8557;52.068;5.198;2023-01-29T00:51:02;19.98;;;14.60;;
16880;SDS011;8557;52.068;5.198;2023-01-29T00:53:30;19.75;;;14.48;;
16880;SDS011;8557;52.068;5.198;2023-01-29T00:55:57;22.20;;;16.02;;
16880;SDS011;8557;52.068;5.198;2023-01-29T00:58:24;22.33;;;15.40;;
16880;SDS011;8557;52.068;5.198;2023-01-29T01:01:00;20.55;;;14.77;;
16880;SDS011;8557;52.068;5.198;2023-01-29T01:03:27;19.75;;;14.85;;
16880;SDS011;8557;52.068;5.198;2023-01-29T01:06:03;22.88;;;15.40;;
16880;SDS011;8557;52.068;5.198;2023-01-29T01:08:32;21.05;;;14.32;;
16880;SDS011;8557;52.068;5.198;2023-01-29T01:11:16;22.08;;;15.25;;
16880;SDS011;8557;52.068;5.198;2023-01-29T01:13:44;21.05;;;15.27;;
16880;SDS011;8557;52.068;5.198;2023-01-29T01:16:11;23.02;;;15.77;;
16880;SDS011;8557;52.068;5.198;2023-01-29T01:18:39;19.00;;;13.98;;
16880;SDS011;8557;52.068;5.198;2023-01-29T01:21:07;20.15;;;14.05;;
16880;SDS011;8557;52.068;5.198;2023-01-29T01:23:35;18.58;;;13.73;;
16880;SDS011;8557;52.068;5.198;2023-01-29T01:26:06;19.20;;;14.55;;
16880;SDS011;8557;52.068;5.198;2023-01-29T01:28:34;19.83;;;14.32;;
16880;SDS011;8557;52.068;5.198;2023-01-29T01:31:06;19.48;;;14.32;;
16880;SDS011;8557;52.068;5.198;2023-01-29T01:33:34;24.83;;;15.13;;
16880;SDS011;8557;52.068;5.198;2023-01-29T01:36:02;20.15;;;14.25;;
16880;SDS011;8557;52.068;5.198;2023-01-29T01:38:33;20.08;;;13.82;;
16880;SDS011;8557;52.068;5.198;2023-01-29T01:41:01;18.75;;;13.90;;
16880;SDS011;8557;52.068;5.198;2023-01-29T01:46:17;20.33;;;14.25;;
16880;SDS011;8557;52.068;5.198;2023-01-29T01:48:44;18.48;;;13.57;;
16880;SDS011;8557;52.068;5.198;2023-01-29T01:51:16;19.05;;;13.30;;
16880;SDS011;8557;52.068;5.198;2023-01-29T01:53:47;18.35;;;13.45;;
16880;SDS011;8557;52.068;5.198;2023-01-29T01:56:21;18.63;;;14.30;;
16880;SDS011;8557;52.068;5.198;2023-01-29T01:58:50;19.40;;;14.18;;
16880;SDS011;8557;52.068;5.198;2023-01-29T02:01:19;20.25;;;13.25;;
16880;SDS011;8557;52.068;5.198;2023-01-29T02:03:52;20.08;;;13.95;;
16880;SDS011;8557;52.068;5.198;2023-01-29T02:06:40;20.58;;;13.32;;
16880;SDS011;8557;52.068;5.198;2023-01-29T02:09:27;19.73;;;14.35;;
16880;SDS011;8557;52.068;5.198;2023-01-29T02:12:02;21.15;;;14.50;;
16880;SDS011;8557;52.068;5.198;2023-01-29T02:14:30;19.77;;;14.02;;
16880;SDS011;8557;52.068;5.198;2023-01-29T02:17:03;18.77;;;14.27;;
16880;SDS011;8557;52.068;5.198;2023-01-29T02:19:41;21.70;;;14.52;;
16880;SDS011;8557;52.068;5.198;2023-01-29T02:22:23;21.02;;;14.88;;
16880;SDS011;8557;52.068;5.198;2023-01-29T02:28:19;23.27;;;15.23;;
16880;SDS011;8557;52.068;5.198;2023-01-29T02:30:52;22.88;;;15.10;;
16880;SDS011;8557;52.068;5.198;2023-01-29T02:33:25;20.90;;;15.15;;
16880;SDS011;8557;52.068;5.198;2023-01-29T02:36:03;21.15;;;14.77;;
16880;SDS011;8557;52.068;5.198;2023-01-29T02:38:40;21.35;;;14.18;;
16880;SDS011;8557;52.068;5.198;2023-01-29T02:41:14;21.88;;;15.15;;
16880;SDS011;8557;52.068;5.198;2023-01-29T02:43:50;22.00;;;15.65;;
16880;SDS011;8557;52.068;5.198;2023-01-29T02:46:22;19.85;;;15.00;;
16880;SDS011;8557;52.068;5.198;2023-01-29T02:48:56;20.80;;;14.85;;
16880;SDS011;8557;52.068;5.198;2023-01-29T02:51:29;22.90;;;14.85;;
16880;SDS011;8557;52.068;5.198;2023-01-29T02:54:00;24.35;;;16.10;;
16880;SDS011;8557;52.068;5.198;2023-01-29T02:56:34;23.80;;;15.70;;
16880;SDS011;8557;52.068;5.198;2023-01-29T02:59:06;21.52;;;15.27;;
16880;SDS011;8557;52.068;5.198;2023-01-29T03:01:37;22.98;;;16.33;;
16880;SDS011;8557;52.068;5.198;2023-01-29T03:04:10;23.98;;;17.10;;
16880;SDS011;8557;52.068;5.198;2023-01-29T03:06:40;22.10;;;16.30;;
16880;SDS011;8557;52.068;5.198;2023-01-29T03:09:11;24.95;;;17.70;;
16880;SDS011;8557;52.068;5.198;2023-01-29T03:11:42;22.25;;;16.15;;
16880;SDS011;8557;52.068;5.198;2023-01-29T03:14:14;23.10;;;16.65;;
16880;SDS011;8557;52.068;5.198;2023-01-29T03:16:48;27.27;;;17.77;;
16880;SDS011;8557;52.068;5.198;2023-01-29T03:19:17;25.73;;;17.17;;
16880;SDS011;8557;52.068;5.198;2023-01-29T03:21:49;24.00;;;16.80;;
16880;SDS011;8557;52.068;5.198;2023-01-29T03:24:25;24.88;;;17.27;;
16880;SDS011;8557;52.068;5.198;2023-01-29T03:27:18;25.42;;;16.90;;
16880;SDS011;8557;52.068;5.198;2023-01-29T03:30:07;25.85;;;17.67;;
16880;SDS011;8557;52.068;5.198;2023-01-29T03:32:54;22.88;;;16.58;;
16880;SDS011;8557;52.068;5.198;2023-01-29T03:35:25;24.80;;;17.60;;
16880;SDS011;8557;52.068;5.198;2023-01-29T03:37:59;23.15;;;16.85;;
16880;SDS011;8557;52.068;5.198;2023-01-29T03:40:28;24.60;;;17.25;;
16880;SDS011;8557;52.068;5.198;2023-01-29T03:43:03;24.38;;;17.25;;
16880;SDS011;8557;52.068;5.198;2023-01-29T03:45:38;26.60;;;17.02;;
16880;SDS011;8557;52.068;5.198;2023-01-29T03:48:14;23.27;;;16.15;;
16880;SDS011;8557;52.068;5.198;2023-01-29T03:50:50;23.35;;;16.90;;
16880;SDS011;8557;52.068;5.198;2023-01-29T03:53:22;26.35;;;17.88;;
16880;SDS011;8557;52.068;5.198;2023-01-29T03:55:54;25.55;;;18.15;;
16880;SDS011;8557;52.068;5.198;2023-01-29T03:58:28;27.65;;;17.80;;
16880;SDS011;8557;52.068;5.198;2023-01-29T04:01:03;26.63;;;17.35;;
16880;SDS011;8557;52.068;5.198;2023-01-29T04:03:36;23.55;;;16.95;;
16880;SDS011;8557;52.068;5.198;2023-01-29T04:06:07;25.30;;;17.90;;
16880;SDS011;8557;52.068;5.198;2023-01-29T04:08:39;23.92;;;16.42;;
16880;SDS011;8557;52.068;5.198;2023-01-29T04:11:13;23.98;;;16.73;;
16880;SDS011;8557;52.068;5.198;2023-01-29T04:13:42;26.08;;;18.27;;
16880;SDS011;8557;52.068;5.198;2023-01-29T04:16:12;25.92;;;17.80;;
16880;SDS011;8557;52.068;5.198;2023-01-29T04:18:44;23.02;;;16.30;;
16880;SDS011;8557;52.068;5.198;2023-01-29T04:21:12;25.00;;;17.42;;
16880;SDS011;8557;52.068;5.198;2023-01-29T04:23:39;22.60;;;16.25;;
16880;SDS011;8557;52.068;5.198;2023-01-29T04:28:58;27.35;;;17.25;;
16880;SDS011;8557;52.068;5.198;2023-01-29T04:31:43;24.73;;;16.60;;
16880;SDS011;8557;52.068;5.198;2023-01-29T04:34:20;25.13;;;17.58;;
16880;SDS011;8557;52.068;5.198;2023-01-29T04:36:53;26.33;;;17.58;;
16880;SDS011;8557;52.068;5.198;2023-01-29T04:39:29;24.13;;;16.70;;
16880;SDS011;8557;52.068;5.198;2023-01-29T04:42:04;25.58;;;17.13;;
16880;SDS011;8557;52.068;5.198;2023-01-29T04:44:37;25.00;;;17.55;;
16880;SDS011;8557;52.068;5.198;2023-01-29T04:47:13;26.55;;;17.45;;
16880;SDS011;8557;52.068;5.198;2023-01-29T04:49:48;24.58;;;18.08;;
16880;SDS011;8557;52.068;5.198;2023-01-29T04:52:23;25.63;;;17.83;;
16880;SDS011;8557;52.068;5.198;2023-01-29T04:54:59;26.67;;;17.00;;
16880;SDS011;8557;52.068;5.198;2023-01-29T04:57:32;24.88;;;16.55;;
16880;SDS011;8557;52.068;5.198;2023-01-29T05:00:03;23.38;;;16.65;;
16880;SDS011;8557;52.068;5.198;2023-01-29T05:02:38;27.55;;;19.15;;
16880;SDS011;8557;52.068;5.198;2023-01-29T05:05:07;26.05;;;17.95;;
16880;SDS011;8557;52.068;5.198;2023-01-29T05:07:36;27.30;;;17.95;;
16880;SDS011;8557;52.068;5.198;2023-01-29T05:10:04;23.70;;;17.50;;
16880;SDS011;8557;52.068;5.198;2023-01-29T05:12:34;24.40;;;17.60;;
16880;SDS011;8557;52.068;5.198;2023-01-29T05:15:03;47.45;;;17.60;;
16880;SDS011;8557;52.068;5.198;2023-01-29T05:17:34;25.05;;;17.77;;
16880;SDS011;8557;52.068;5.198;2023-01-29T05:20:03;24.95;;;18.02;;
16880;SDS011;8557;52.068;5.198;2023-01-29T05:22:30;24.05;;;17.35;;
16880;SDS011;8557;52.068;5.198;2023-01-29T05:24:57;24.35;;;17.27;;
16880;SDS011;8557;52.068;5.198;2023-01-29T05:27:25;24.60;;;17.75;;
16880;SDS011;8557;52.068;5.198;2023-01-29T05:30:14;24.45;;;17.30;;
16880;SDS011;8557;52.068;5.198;2023-01-29T05:32:41;25.90;;;18.55;;
16880;SDS011;8557;52.068;5.198;2023-01-29T05:35:09;25.55;;;18.05;;
16880;SDS011;8557;52.068;5.198;2023-01-29T05:37:36;24.80;;;17.77;;
16880;SDS011;8557;52.068;5.198;2023-01-29T05:40:03;22.52;;;17.20;;
16880;SDS011;8557;52.068;5.198;2023-01-29T05:42:32;25.70;;;18.23;;
16880;SDS011;8557;52.068;5.198;2023-01-29T05:44:59;24.05;;;17.40;;
16880;SDS011;8557;52.068;5.198;2023-01-29T05:47:26;24.88;;;17.58;;
16880;SDS011;8557;52.068;5.198;2023-01-29T05:49:53;24.90;;;17.98;;
16880;SDS011;8557;52.068;5.198;2023-01-29T05:52:21;23.77;;;17.35;;
16880;SDS011;8557;52.068;5.198;2023-01-29T05:54:48;24.00;;;17.35;;
16880;SDS011;8557;52.068;5.198;2023-01-29T05:57:14;24.13;;;17.97;;
16880;SDS011;8557;52.068;5.198;2023-01-29T05:59:41;22.50;;;16.67;;
16880;SDS011;8557;52.068;5.198;2023-01-29T06:02:08;25.08;;;16.77;;
16880;SDS011;8557;52.068;5.198;2023-01-29T06:04:34;20.83;;;15.73;;
16880;SDS011;8557;52.068;5.198;2023-01-29T06:07:01;23.88;;;17.23;;
16880;SDS011;8557;52.068;5.198;2023-01-29T06:09:30;24.35;;;16.65;;
16880;SDS011;8557;52.068;5.198;2023-01-29T06:11:57;23.83;;;16.95;;
16880;SDS011;8557;52.068;5.198;2023-01-29T06:14:24;24.08;;;16.33;;
16880;SDS011;8557;52.068;5.198;2023-01-29T06:16:51;24.73;;;17.65;;
16880;SDS011;8557;52.068;5.198;2023-01-29T06:19:17;22.52;;;17.10;;
16880;SDS011;8557;52.068;5.198;2023-01-29T06:21:44;25.00;;;16.73;;
16880;SDS011;8557;52.068;5.198;2023-01-29T06:24:11;24.05;;;17.30;;
16880;SDS011;8557;52.068;5.198;2023-01-29T06:26:39;22.27;;;16.83;;
16880;SDS011;8557;52.068;5.198;2023-01-29T06:29:06;22.63;;;16.75;;
16880;SDS011;8557;52.068;5.198;2023-01-29T06:31:33;23.13;;;15.77;;
16880;SDS011;8557;52.068;5.198;2023-01-29T06:33:59;24.13;;;16.85;;
16880;SDS011;8557;52.068;5.198;2023-01-29T06:36:27;23.33;;;16.55;;
16880;SDS011;8557;52.068;5.198;2023-01-29T06:38:54;24.40;;;17.25;;
16880;SDS011;8557;52.068;5.198;2023-01-29T06:41:21;22.83;;;16.40;;
16880;SDS011;8557;52.068;5.198;2023-01-29T06:43:50;22.40;;;16.35;;
16880;SDS011;8557;52.068;5.198;2023-01-29T06:46:17;20.70;;;15.88;;
16880;SDS011;8557;52.068;5.198;2023-01-29T06:48:44;23.42;;;16.75;;
16880;SDS011;8557;52.068;5.198;2023-01-29T06:51:11;22.00;;;16.23;;
16880;SDS011;8557;52.068;5.198;2023-01-29T06:53:38;23.80;;;16.25;;
16880;SDS011;8557;52.068;5.198;2023-01-29T06:56:05;21.83;;;16.15;;
16880;SDS011;8557;52.068;5.198;2023-01-29T06:58:34;21.20;;;15.57;;
16880;SDS011;8557;52.068;5.198;2023-01-29T07:01:04;20.00;;;15.40;;
16880;SDS011;8557;52.068;5.198;2023-01-29T07:03:32;20.88;;;15.73;;
16880;SDS011;8557;52.068;5.198;2023-01-29T07:05:59;24.80;;;16.42;;
16880;SDS011;8557;52.068;5.198;2023-01-29T07:08:26;24.77;;;16.75;;
16880;SDS011;8557;52.068;5.198;2023-01-29T07:10:53;19.45;;;15.93;;
16880;SDS011;8557;52.068;5.198;2023-01-29T07:13:23;25.88;;;15.82;;
16880;SDS011;8557;52.068;5.198;2023-01-29T07:15:50;21.30;;;15.85;;
16880;SDS011;8557;52.068;5.198;2023-01-29T07:18:18;22.70;;;15.65;;
16880;SDS011;8557;52.068;5.198;2023-01-29T07:20:45;21.08;;;15.10;;
16880;SDS011;8557;52.068;5.198;2023-01-29T07:23:12;21.77;;;15.48;;
16880;SDS011;8557;52.068;5.198;2023-01-29T07:25:39;22.33;;;15.95;;
16880;SDS011;8557;52.068;5.198;2023-01-29T07:28:06;19.90;;;15.32;;
16880;SDS011;8557;52.068;5.198;2023-01-29T07:30:33;21.60;;;15.68;;
16880;SDS011;8557;52.068;5.198;2023-01-29T07:33:01;19.73;;;15.15;;
16880;SDS011;8557;52.068;5.198;2023-01-29T07:35:30;18.70;;;14.55;;
16880;SDS011;8557;52.068;5.198;2023-01-29T07:37:57;21.67;;;15.00;;
16880;SDS011;8557;52.068;5.198;2023-01-29T07:40:24;22.35;;;15.30;;
16880;SDS011;8557;52.068;5.198;2023-01-29T07:42:50;20.08;;;15.30;;
16880;SDS011;8557;52.068;5.198;2023-01-29T07:45:23;19.92;;;14.70;;
16880;SDS011;8557;52.068;5.198;2023-01-29T07:47:51;21.85;;;15.93;;
16880;SDS011;8557;52.068;5.198;2023-01-29T07:50:18;21.55;;;15.85;;
16880;SDS011;8557;52.068;5.198;2023-01-29T07:52:46;19.92;;;14.75;;
16880;SDS011;8557;52.068;5.198;2023-01-29T07:55:13;24.65;;;15.65;;
16880;SDS011;8557;52.068;5.198;2023-01-29T07:57:40;20.80;;;15.20;;
16880;SDS011;8557;52.068;5.198;2023-01-29T08:00:08;19.85;;;15.55;;
16880;SDS011;8557;52.068;5.198;2023-01-29T08:02:36;21.55;;;15.32;;
16880;SDS011;8557;52.068;5.198;2023-01-29T08:05:03;19.88;;;15.43;;
16880;SDS011;8557;52.068;5.198;2023-01-29T08:07:30;19.17;;;14.88;;
16880;SDS011;8557;52.068;5.198;2023-01-29T08:09:58;20.95;;;14.82;;
16880;SDS011;8557;52.068;5.198;2023-01-29T08:12:25;20.13;;;15.20;;
16880;SDS011;8557;52.068;5.198;2023-01-29T08:14:52;20.85;;;15.15;;
16880;SDS011;8557;52.068;5.198;2023-01-29T08:17:18;20.48;;;14.80;;
16880;SDS011;8557;52.068;5.198;2023-01-29T08:19:45;20.92;;;15.00;;
16880;SDS011;8557;52.068;5.198;2023-01-29T08:22:12;21.10;;;15.63;;
16880;SDS011;8557;52.068;5.198;2023-01-29T08:24:39;21.02;;;15.07;;
16880;SDS011;8557;52.068;5.198;2023-01-29T08:27:07;19.60;;;14.55;;
16880;SDS011;8557;52.068;5.198;2023-01-29T08:29:34;19.23;;;14.40;;
16880;SDS011;8557;52.068;5.198;2023-01-29T08:32:01;22.08;;;15.02;;
16880;SDS011;8557;52.068;5.198;2023-01-29T08:34:27;19.95;;;14.13;;
16880;SDS011;8557;52.068;5.198;2023-01-29T08:36:54;22.38;;;15.43;;
16880;SDS011;8557;52.068;5.198;2023-01-29T08:39:21;19.02;;;14.77;;
16880;SDS011;8557;52.068;5.198;2023-01-29T08:41:48;20.45;;;15.05;;
16880;SDS011;8557;52.068;5.198;2023-01-29T08:44:16;20.85;;;15.32;;
16880;SDS011;8557;52.068;5.198;2023-01-29T08:46:43;21.27;;;15.32;;
16880;SDS011;8557;52.068;5.198;2023-01-29T08:49:09;21.13;;;14.98;;
16880;SDS011;8557;52.068;5.198;2023-01-29T08:51:36;19.88;;;14.45;;
16880;SDS011;8557;52.068;5.198;2023-01-29T08:54:03;21.88;;;14.82;;
16880;SDS011;8557;52.068;5.198;2023-01-29T08:56:30;18.83;;;14.93;;
16880;SDS011;8557;52.068;5.198;2023-01-29T08:58:57;20.75;;;14.80;;
16880;SDS011;8557;52.068;5.198;2023-01-29T09:01:25;23.90;;;15.25;;
16880;SDS011;8557;52.068;5.198;2023-01-29T09:03:52;21.17;;;15.80;;
16880;SDS011;8557;52.068;5.198;2023-01-29T09:06:18;19.25;;;14.52;;
16880;SDS011;8557;52.068;5.198;2023-01-29T09:08:45;22.10;;;15.60;;
16880;SDS011;8557;52.068;5.198;2023-01-29T09:11:13;18.77;;;14.40;;
16880;SDS011;8557;52.068;5.198;2023-01-29T09:13:40;18.25;;;14.20;;
16880;SDS011;8557;52.068;5.198;2023-01-29T09:16:08;20.35;;;14.88;;
16880;SDS011;8557;52.068;5.198;2023-01-29T09:18:36;19.10;;;14.63;;
16880;SDS011;8557;52.068;5.198;2023-01-29T09:21:03;23.23;;;14.65;;
16880;SDS011;8557;52.068;5.198;2023-01-29T09:23:31;19.58;;;14.80;;
16880;SDS011;8557;52.068;5.198;2023-01-29T09:25:58;20.30;;;14.25;;
16880;SDS011;8557;52.068;5.198;2023-01-29T09:28:24;22.77;;;15.25;;
16880;SDS011;8557;52.068;5.198;2023-01-29T09:30:51;19.10;;;14.95;;
16880;SDS011;8557;52.068;5.198;2023-01-29T09:33:18;22.17;;;15.80;;
16880;SDS011;8557;52.068;5.198;2023-01-29T09:35:46;21.85;;;15.65;;
16880;SDS011;8557;52.068;5.198;2023-01-29T09:38:13;20.08;;;15.18;;
16880;SDS011;8557;52.068;5.198;2023-01-29T09:40:42;22.48;;;15.68;;
16880;SDS011;8557;52.068;5.198;2023-01-29T09:43:19;20.52;;;15.07;;
16880;SDS011;8557;52.068;5.198;2023-01-29T09:45:50;20.77;;;14.57;;
16880;SDS011;8557;52.068;5.198;2023-01-29T09:48:21;21.85;;;15.32;;
16880;SDS011;8557;52.068;5.198;2023-01-29T09:50:52;18.60;;;14.80;;
16880;SDS011;8557;52.068;5.198;2023-01-29T09:53:23;23.10;;;16.23;;
16880;SDS011;8557;52.068;5.198;2023-01-29T09:55:57;20.27;;;15.18;;
16880;SDS011;8557;52.068;5.198;2023-01-29T09:58:28;18.90;;;14.82;;
16880;SDS011;8557;52.068;5.198;2023-01-29T10:00:59;18.85;;;15.15;;
16880;SDS011;8557;52.068;5.198;2023-01-29T10:03:47;21.73;;;16.80;;
16880;SDS011;8557;52.068;5.198;2023-01-29T10:06:29;21.02;;;15.10;;
16880;SDS011;8557;52.068;5.198;2023-01-29T10:12:14;22.00;;;16.30;;
16880;SDS011;8557;52.068;5.198;2023-01-29T10:14:55;20.85;;;14.98;;
16880;SDS011;8557;52.068;5.198;2023-01-29T10:17:35;23.55;;;15.98;;
16880;SDS011;8557;52.068;5.198;2023-01-29T10:23:13;21.95;;;16.08;;
16880;SDS011;8557;52.068;5.198;2023-01-29T10:25:46;21.80;;;16.80;;
16880;SDS011;8557;52.068;5.198;2023-01-29T10:28:15;22.40;;;16.55;;
16880;SDS011;8557;52.068;5.198;2023-01-29T10:30:46;22.65;;;15.93;;
16880;SDS011;8557;52.068;5.198;2023-01-29T10:33:21;25.90;;;17.35;;
16880;SDS011;8557;52.068;5.198;2023-01-29T10:35:54;22.73;;;16.67;;
16880;SDS011;8557;52.068;5.198;2023-01-29T10:38:34;21.30;;;16.85;;
16880;SDS011;8557;52.068;5.198;2023-01-29T10:41:14;22.65;;;16.90;;
16880;SDS011;8557;52.068;5.198;2023-01-29T10:43:52;23.52;;;17.35;;
16880;SDS011;8557;52.068;5.198;2023-01-29T10:46:29;23.73;;;17.75;;
16880;SDS011;8557;52.068;5.198;2023-01-29T10:49:09;21.60;;;16.42;;
16880;SDS011;8557;52.068;5.198;2023-01-29T10:51:50;24.17;;;16.98;;
16880;SDS011;8557;52.068;5.198;2023-01-29T10:54:33;22.58;;;16.50;;
16880;SDS011;8557;52.068;5.198;2023-01-29T10:57:11;25.73;;;18.23;;
16880;SDS011;8557;52.068;5.198;2023-01-29T10:59:48;26.52;;;18.27;;
16880;SDS011;8557;52.068;5.198;2023-01-29T11:02:24;27.45;;;17.60;;
16880;SDS011;8557;52.068;5.198;2023-01-29T11:04:51;23.73;;;17.23;;
16880;SDS011;8557;52.068;5.198;2023-01-29T11:07:18;25.35;;;18.08;;
16880;SDS011;8557;52.068;5.198;2023-01-29T11:09:50;23.52;;;17.65;;
16880;SDS011;8557;52.068;5.198;2023-01-29T11:12:22;24.27;;;17.63;;
16880;SDS011;8557;52.068;5.198;2023-01-29T11:14:54;25.77;;;19.27;;
16880;SDS011;8557;52.068;5.198;2023-01-29T11:17:25;28.15;;;18.42;;
16880;SDS011;8557;52.068;5.198;2023-01-29T11:19:53;24.45;;;17.63;;
16880;SDS011;8557;52.068;5.198;2023-01-29T11:22:21;26.48;;;17.77;;
16880;SDS011;8557;52.068;5.198;2023-01-29T11:25:06;25.83;;;19.48;;
16880;SDS011;8557;52.068;5.198;2023-01-29T11:27:38;30.10;;;18.85;;
16880;SDS011;8557;52.068;5.198;2023-01-29T11:30:13;28.90;;;19.38;;
16880;SDS011;8557;52.068;5.198;2023-01-29T11:32:44;28.75;;;20.25;;
16880;SDS011;8557;52.068;5.198;2023-01-29T11:35:20;27.05;;;18.63;;
16880;SDS011;8557;52.068;5.198;2023-01-29T11:37:49;28.90;;;19.10;;
16880;SDS011;8557;52.068;5.198;2023-01-29T11:40:35;26.90;;;19.42;;
16880;SDS011;8557;52.068;5.198;2023-01-29T11:45:55;30.35;;;20.45;;
16880;SDS011;8557;52.068;5.198;2023-01-29T11:48:26;31.88;;;20.20;;
16880;SDS011;8557;52.068;5.198;2023-01-29T11:50:59;28.80;;;20.33;;
16880;SDS011;8557;52.068;5.198;2023-01-29T11:53:31;26.83;;;19.15;;
16880;SDS011;8557;52.068;5.198;2023-01-29T11:56:04;29.70;;;20.13;;
16880;SDS011;8557;52.068;5.198;2023-01-29T11:58:39;29.23;;;20.20;;
16880;SDS011;8557;52.068;5.198;2023-01-29T12:01:07;30.08;;;20.73;;
16880;SDS011;8557;52.068;5.198;2023-01-29T12:03:36;28.45;;;20.13;;
16880;SDS011;8557;52.068;5.198;2023-01-29T12:06:11;38.50;;;20.15;;
16880;SDS011;8557;52.068;5.198;2023-01-29T12:08:43;31.38;;;20.40;;
16880;SDS011;8557;52.068;5.198;2023-01-29T12:11:23;28.00;;;20.63;;
16880;SDS011;8557;52.068;5.198;2023-01-29T12:13:52;27.35;;;20.20;;
16880;SDS011;8557;52.068;5.198;2023-01-29T12:16:22;29.55;;;20.65;;
16880;SDS011;8557;52.068;5.198;2023-01-29T12:18:52;28.20;;;20.63;;
16880;SDS011;8557;52.068;5.198;2023-01-29T12:21:23;31.60;;;21.30;;
16880;SDS011;8557;52.068;5.198;2023-01-29T12:23:56;30.27;;;20.35;;
16880;SDS011;8557;52.068;5.198;2023-01-29T12:26:30;30.40;;;21.50;;
16880;SDS011;8557;52.068;5.198;2023-01-29T12:29:06;30.15;;;20.83;;
16880;SDS011;8557;52.068;5.198;2023-01-29T12:31:53;31.90;;;20.88;;
16880;SDS011;8557;52.068;5.198;2023-01-29T12:34:26;29.10;;;21.05;;
16880;SDS011;8557;52.068;5.198;2023-01-29T12:37:03;27.42;;;20.02;;
16880;SDS011;8557;52.068;5.198;2023-01-29T12:39:37;27.23;;;20.35;;
16880;SDS011;8557;52.068;5.198;2023-01-29T12:42:07;29.38;;;20.52;;
16880;SDS011;8557;52.068;5.198;2023-01-29T12:44:40;27.15;;;19.95;;
16880;SDS011;8557;52.068;5.198;2023-01-29T12:47:11;31.30;;;21.45;;
16880;SDS011;8557;52.068;5.198;2023-01-29T12:49:44;27.63;;;20.30;;
16880;SDS011;8557;52.068;5.198;2023-01-29T12:52:17;28.27;;;21.10;;
16880;SDS011;8557;52.068;5.198;2023-01-29T12:54:49;28.60;;;20.10;;
16880;SDS011;8557;52.068;5.198;2023-01-29T12:57:22;29.77;;;21.58;;
16880;SDS011;8557;52.068;5.198;2023-01-29T12:59:54;26.33;;;20.33;;
16880;SDS011;8557;52.068;5.198;2023-01-29T13:02:29;32.08;;;21.92;;
16880;SDS011;8557;52.068;5.198;2023-01-29T13:05:00;30.60;;;21.50;;
16880;SDS011;8557;52.068;5.198;2023-01-29T13:07:34;28.58;;;21.40;;
16880;SDS011;8557;52.068;5.198;2023-01-29T13:10:06;28.85;;;20.50;;
16880;SDS011;8557;52.068;5.198;2023-01-29T13:12:43;27.10;;;20.13;;
16880;SDS011;8557;52.068;5.198;2023-01-29T13:15:19;26.02;;;19.55;;
16880;SDS011;8557;52.068;5.198;2023-01-29T13:17:50;27.05;;;21.05;;
16880;SDS011;8557;52.068;5.198;2023-01-29T13:20:22;27.85;;;19.23;;
16880;SDS011;8557;52.068;5.198;2023-01-29T13:22:51;26.45;;;20.25;;
16880;SDS011;8557;52.068;5.198;2023-01-29T13:25:21;26.13;;;19.70;;
16880;SDS011;8557;52.068;5.198;2023-01-29T13:27:49;26.88;;;19.30;;
16880;SDS011;8557;52.068;5.198;2023-01-29T13:30:23;27.55;;;19.55;;
16880;SDS011;8557;52.068;5.198;2023-01-29T13:32:52;25.75;;;18.92;;
16880;SDS011;8557;52.068;5.198;2023-01-29T13:35:32;26.40;;;19.73;;
16880;SDS011;8557;52.068;5.198;2023-01-29T13:38:01;27.50;;;19.88;;
16880;SDS011;8557;52.068;5.198;2023-01-29T13:40:29;25.63;;;19.27;;
16880;SDS011;8557;52.068;5.198;2023-01-29T13:43:00;24.15;;;18.23;;
16880;SDS011;8557;52.068;5.198;2023-01-29T13:45:29;24.77;;;19.13;;
16880;SDS011;8557;52.068;5.198;2023-01-29T13:48:07;27.48;;;19.58;;
16880;SDS011;8557;52.068;5.198;2023-01-29T13:50:37;27.38;;;19.90;;
16880;SDS011;8557;52.068;5.198;2023-01-29T13:53:07;24.88;;;19.50;;
16880;SDS011;8557;52.068;5.198;2023-01-29T13:55:45;24.77;;;19.55;;
16880;SDS011;8557;52.068;5.198;2023-01-29T13:58:14;24.48;;;19.33;;
16880;SDS011;8557;52.068;5.198;2023-01-29T14:12:34;24.75;;;19.20;;
16880;SDS011;8557;52.068;5.198;2023-01-29T14:15:16;25.63;;;18.75;;
16880;SDS011;8557;52.068;5.198;2023-01-29T14:17:54;24.80;;;18.48;;
16880;SDS011;8557;52.068;5.198;2023-01-29T14:20:26;26.02;;;19.00;;
16880;SDS011;8557;52.068;5.198;2023-01-29T14:22:58;26.98;;;18.30;;
16880;SDS011;8557;52.068;5.198;2023-01-29T14:25:28;24.17;;;18.25;;
16880;SDS011;8557;52.068;5.198;2023-01-29T14:27:57;24.60;;;19.90;;
16880;SDS011;8557;52.068;5.198;2023-01-29T14:30:27;24.25;;;19.17;;
16880;SDS011;8557;52.068;5.198;2023-01-29T14:32:56;25.33;;;18.65;;
16880;SDS011;8557;52.068;5.198;2023-01-29T14:35:24;22.88;;;18.55;;
16880;SDS011;8557;52.068;5.198;2023-01-29T14:37:55;25.98;;;18.08;;
16880;SDS011;8557;52.068;5.198;2023-01-29T14:40:24;26.48;;;18.45;;
16880;SDS011;8557;52.068;5.198;2023-01-29T14:42:55;23.92;;;18.80;;
16880;SDS011;8557;52.068;5.198;2023-01-29T14:45:27;25.30;;;18.75;;
16880;SDS011;8557;52.068;5.198;2023-01-29T14:47:56;23.35;;;18.40;;
16880;SDS011;8557;52.068;5.198;2023-01-29T14:53:22;27.42;;;18.98;;
16880;SDS011;8557;52.068;5.198;2023-01-29T14:55:56;25.02;;;17.77;;
16880;SDS011;8557;52.068;5.198;2023-01-29T14:58:32;25.67;;;18.52;;
16880;SDS011;8557;52.068;5.198;2023-01-29T15:01:05;26.83;;;18.45;;
16880;SDS011;8557;52.068;5.198;2023-01-29T15:03:41;26.02;;;18.48;;
16880;SDS011;8557;52.068;5.198;2023-01-29T15:06:14;23.27;;;17.65;;
16880;SDS011;8557;52.068;5.198;2023-01-29T15:08:44;22.65;;;17.20;;
16880;SDS011;8557;52.068;5.198;2023-01-29T15:11:19;22.65;;;16.55;;
16880;SDS011;8557;52.068;5.198;2023-01-29T15:14:02;24.55;;;16.95;;
16880;SDS011;8557;52.068;5.198;2023-01-29T15:16:40;23.65;;;16.55;;
16880;SDS011;8557;52.068;5.198;2023-01-29T15:19:12;20.63;;;16.80;;
16880;SDS011;8557;52.068;5.198;2023-01-29T15:24:30;20.33;;;15.68;;
16880;SDS011;8557;52.068;5.198;2023-01-29T15:26:57;21.80;;;16.05;;
16880;SDS011;8557;52.068;5.198;2023-01-29T15:29:25;22.45;;;17.02;;
16880;SDS011;8557;52.068;5.198;2023-01-29T15:31:54;22.42;;;16.88;;